sensor_id;sensor_type;location;lat;lon;timestamp;pressure;altitude;pressure_sealevel;temperature;humidity
5356;BME280;70449;52.486;13.386;2024-01-30T00:00:58;102283.75;;;9.35;78.79
5356;BME280;70449;52.486;13.386;2024-01-30T00:03:27;102281.19;;;9.45;80.05
5356;BME280;70449;52.486;13.386;2024-01-30T00:05:55;102279.03;;;9.30;80.28
5356;BME280;70449;52.486;13.386;2024-01-30T00:08:22;102276.66;;;9.05;81.07
5356;BME280;70449;52.486;13.386;2024-01-30T00:10:50;102275.53;;;9.35;79.62
5356;BME280;70449;52.486;13.386;2024-01-30T00:13:17;102272.06;;;8.66;85.89
5356;BME280;70449;52.486;13.386;2024-01-30T00:15:45;102280.03;;;9.24;82.96
5356;BME280;70449;52.486;13.386;2024-01-30T00:18:13;102277.34;;;9.13;81.87
5356;BME280;70449;52.486;13.386;2024-01-30T00:20:41;102278.50;;;9.17;81.86
5356;BME280;70449;52.486;13.386;2024-01-30T00:23:09;102286.38;;;9.30;81.83
5356;BME280;70449;52.486;13.386;2024-01-30T00:25:36;102287.13;;;9.08;85.58
5356;BME280;70449;52.486;13.386;2024-01-30T00:28:04;102288.97;;;9.20;85.48
5356;BME280;70449;52.486;13.386;2024-01-30T00:30:31;102276.22;;;9.42;81.56
5356;BME280;70449;52.486;13.386;2024-01-30T00:32:58;102275.69;;;9.12;81.97
5356;BME280;70449;52.486;13.386;2024-01-30T00:35:26;102277.81;;;9.09;87.09
5356;BME280;70449;52.486;13.386;2024-01-30T00:37:55;102275.22;;;9.31;86.01
5356;BME280;70449;52.486;13.386;2024-01-30T00:40:23;102276.06;;;9.03;85.45
5356;BME280;70449;52.486;13.386;2024-01-30T00:42:50;102278.75;;;8.98;89.57
5356;BME280;70449;52.486;13.386;2024-01-30T00:45:17;102278.31;;;9.06;86.22
5356;BME280;70449;52.486;13.386;2024-01-30T00:47:44;102274.69;;;9.18;84.65
5356;BME280;70449;52.486;13.386;2024-01-30T00:50:12;102274.16;;;8.87;86.45
5356;BME280;70449;52.486;13.386;2024-01-30T00:52:39;102266.72;;;8.99;87.98
5356;BME280;70449;52.486;13.386;2024-01-30T00:55:09;102261.75;;;9.30;82.09
5356;BME280;70449;52.486;13.386;2024-01-30T00:57:36;102273.03;;;9.17;85.63
5356;BME280;70449;52.486;13.386;2024-01-30T01:00:05;102272.00;;;8.60;88.96
5356;BME280;70449;52.486;13.386;2024-01-30T01:02:34;102269.31;;;9.23;86.66
5356;BME280;70449;52.486;13.386;2024-01-30T01:05:02;102265.84;;;9.44;81.99
5356;BME280;70449;52.486;13.386;2024-01-30T01:07:29;102275.78;;;8.88;85.18
5356;BME280;70449;52.486;13.386;2024-01-30T01:09:56;102269.53;;;9.04;87.85
5356;BME280;70449;52.486;13.386;2024-01-30T01:12:25;102270.22;;;9.79;82.14
5356;BME280;70449;52.486;13.386;2024-01-30T01:14:52;102273.03;;;9.50;81.98
5356;BME280;70449;52.486;13.386;2024-01-30T01:17:19;102269.06;;;9.41;82.52
5356;BME280;70449;52.486;13.386;2024-01-30T01:19:46;102276.38;;;9.52;82.82
5356;BME280;70449;52.486;13.386;2024-01-30T01:22:13;102282.84;;;9.46;82.37
5356;BME280;70449;52.486;13.386;2024-01-30T01:24:41;102275.50;;;9.01;83.31
5356;BME280;70449;52.486;13.386;2024-01-30T01:27:08;102269.88;;;8.51;88.78
5356;BME280;70449;52.486;13.386;2024-01-30T01:29:36;102273.44;;;8.51;87.83
5356;BME280;70449;52.486;13.386;2024-01-30T01:32:04;102276.78;;;8.82;88.05
5356;BME280;70449;52.486;13.386;2024-01-30T01:34:31;102275.78;;;8.59;88.06
5356;BME280;70449;52.486;13.386;2024-01-30T01:36:58;102273.19;;;9.27;83.68
5356;BME280;70449;52.486;13.386;2024-01-30T01:39:26;102271.69;;;9.02;85.68
5356;BME280;70449;52.486;13.386;2024-01-30T01:41:53;102276.94;;;9.21;85.40
5356;BME280;70449;52.486;13.386;2024-01-30T01:44:20;102274.84;;;9.11;82.86
5356;BME280;70449;52.486;13.386;2024-01-30T01:46:49;102273.38;;;9.20;83.05
5356;BME280;70449;52.486;13.386;2024-01-30T01:49:18;102272.25;;;8.47;87.95
5356;BME280;70449;52.486;13.386;2024-01-30T01:51:47;102270.03;;;9.01;84.50
5356;BME280;70449;52.486;13.386;2024-01-30T01:54:16;102271.09;;;8.31;88.60
5356;BME280;70449;52.486;13.386;2024-01-30T01:56:43;102271.31;;;8.42;90.47
5356;BME280;70449;52.486;13.386;2024-01-30T01:59:11;102264.75;;;8.54;88.99
5356;BME280;70449;52.486;13.386;2024-01-30T02:01:38;102263.94;;;8.42;89.20
5356;BME280;70449;52.486;13.386;2024-01-30T02:04:08;102266.97;;;8.05;93.02
5356;BME280;70449;52.486;13.386;2024-01-30T02:06:35;102266.25;;;7.98;96.18
5356;BME280;70449;52.486;13.386;2024-01-30T02:09:02;102260.06;;;8.14;94.76
5356;BME280;70449;52.486;13.386;2024-01-30T02:11:30;102263.25;;;8.23;93.40
5356;BME280;70449;52.486;13.386;2024-01-30T02:14:02;102260.91;;;8.03;95.30
5356;BME280;70449;52.486;13.386;2024-01-30T02:16:30;102268.38;;;8.31;93.66
5356;BME280;70449;52.486;13.386;2024-01-30T02:18:57;102262.53;;;8.16;95.83
5356;BME280;70449;52.486;13.386;2024-01-30T02:21:26;102265.75;;;8.25;93.37
5356;BME280;70449;52.486;13.386;2024-01-30T02:23:53;102266.56;;;8.49;92.47
5356;BME280;70449;52.486;13.386;2024-01-30T02:26:21;102275.00;;;8.47;91.31
5356;BME280;70449;52.486;13.386;2024-01-30T02:28:49;102277.53;;;8.66;88.03
5356;BME280;70449;52.486;13.386;2024-01-30T02:31:16;102275.63;;;8.95;86.07
5356;BME280;70449;52.486;13.386;2024-01-30T02:33:43;102265.84;;;8.82;86.92
5356;BME280;70449;52.486;13.386;2024-01-30T02:36:11;102270.75;;;8.28;91.74
5356;BME280;70449;52.486;13.386;2024-01-30T02:38:39;102263.75;;;8.20;91.04
5356;BME280;70449;52.486;13.386;2024-01-30T02:41:06;102263.78;;;7.73;96.71
5356;BME280;70449;52.486;13.386;2024-01-30T02:43:33;102262.47;;;7.99;95.42
5356;BME280;70449;52.486;13.386;2024-01-30T02:46:01;102264.25;;;7.82;98.13
5356;BME280;70449;52.486;13.386;2024-01-30T02:48:28;102260.16;;;8.43;93.50
5356;BME280;70449;52.486;13.386;2024-01-30T02:50:55;102255.81;;;8.59;92.69
5356;BME280;70449;52.486;13.386;2024-01-30T02:53:23;102254.09;;;8.41;91.67
5356;BME280;70449;52.486;13.386;2024-01-30T02:55:52;102255.88;;;8.24;94.31
5356;BME280;70449;52.486;13.386;2024-01-30T02:58:19;102255.56;;;8.20;97.08
5356;BME280;70449;52.486;13.386;2024-01-30T03:00:47;102249.69;;;8.52;92.51
5356;BME280;70449;52.486;13.386;2024-01-30T03:03:14;102254.50;;;8.09;95.38
5356;BME280;70449;52.486;13.386;2024-01-30T03:05:41;102250.69;;;8.62;91.79
5356;BME280;70449;52.486;13.386;2024-01-30T03:08:08;102247.38;;;8.60;92.23
5356;BME280;70449;52.486;13.386;2024-01-30T03:10:34;102247.69;;;8.76;90.26
5356;BME280;70449;52.486;13.386;2024-01-30T03:13:03;102240.72;;;8.56;88.24
5356;BME280;70449;52.486;13.386;2024-01-30T03:15:31;102236.44;;;8.60;89.60
5356;BME280;70449;52.486;13.386;2024-01-30T03:17:58;102233.00;;;8.53;93.17
5356;BME280;70449;52.486;13.386;2024-01-30T03:20:25;102236.28;;;8.67;92.95
5356;BME280;70449;52.486;13.386;2024-01-30T03:22:54;102238.66;;;8.75;90.92
5356;BME280;70449;52.486;13.386;2024-01-30T03:25:21;102236.34;;;8.84;90.12
5356;BME280;70449;52.486;13.386;2024-01-30T03:27:49;102243.38;;;8.80;88.15
5356;BME280;70449;52.486;13.386;2024-01-30T03:30:18;102239.75;;;8.62;92.34
5356;BME280;70449;52.486;13.386;2024-01-30T03:32:45;102241.13;;;8.77;89.85
5356;BME280;70449;52.486;13.386;2024-01-30T03:35:13;102240.19;;;8.71;88.74
5356;BME280;70449;52.486;13.386;2024-01-30T03:37:40;102245.44;;;8.73;91.45
5356;BME280;70449;52.486;13.386;2024-01-30T03:40:08;102236.13;;;8.74;89.69
5356;BME280;70449;52.486;13.386;2024-01-30T03:42:35;102237.47;;;8.31;95.60
5356;BME280;70449;52.486;13.386;2024-01-30T03:45:04;102228.91;;;8.39;93.34
5356;BME280;70449;52.486;13.386;2024-01-30T03:47:32;102232.22;;;8.41;94.94
5356;BME280;70449;52.486;13.386;2024-01-30T03:49:59;102232.50;;;8.28;95.96
5356;BME280;70449;52.486;13.386;2024-01-30T03:52:26;102226.72;;;8.53;94.98
5356;BME280;70449;52.486;13.386;2024-01-30T03:54:54;102234.22;;;8.57;93.03
5356;BME280;70449;52.486;13.386;2024-01-30T03:57:21;102233.78;;;8.94;89.56
5356;BME280;70449;52.486;13.386;2024-01-30T03:59:48;102226.63;;;8.76;92.63
5356;BME280;70449;52.486;13.386;2024-01-30T04:02:15;102231.63;;;8.39;92.32
5356;BME280;70449;52.486;13.386;2024-01-30T04:04:45;102227.22;;;8.38;95.96
5356;BME280;70449;52.486;13.386;2024-01-30T04:07:12;102232.97;;;8.94;92.17
5356;BME280;70449;52.486;13.386;2024-01-30T04:09:39;102232.94;;;8.48;93.57
5356;BME280;70449;52.486;13.386;2024-01-30T04:12:07;102227.81;;;8.52;96.79
5356;BME280;70449;52.486;13.386;2024-01-30T04:14:34;102227.06;;;8.56;96.30
5356;BME280;70449;52.486;13.386;2024-01-30T04:17:01;102231.66;;;8.68;93.81
5356;BME280;70449;52.486;13.386;2024-01-30T04:19:29;102238.41;;;8.48;95.73
5356;BME280;70449;52.486;13.386;2024-01-30T04:21:57;102240.66;;;8.51;97.39
5356;BME280;70449;52.486;13.386;2024-01-30T04:24:24;102238.63;;;8.47;96.89
5356;BME280;70449;52.486;13.386;2024-01-30T04:26:52;102241.69;;;7.86;100.00
5356;BME280;70449;52.486;13.386;2024-01-30T04:29:19;102232.94;;;8.25;100.00
5356;BME280;70449;52.486;13.386;2024-01-30T04:31:48;102235.94;;;8.23;100.00
5356;BME280;70449;52.486;13.386;2024-01-30T04:34:15;102236.25;;;8.79;99.01
5356;BME280;70449;52.486;13.386;2024-01-30T04:36:44;102222.50;;;8.22;100.00
5356;BME280;70449;52.486;13.386;2024-01-30T04:39:13;102226.69;;;8.65;100.00
5356;BME280;70449;52.486;13.386;2024-01-30T04:41:40;102221.22;;;8.65;99.41
5356;BME280;70449;52.486;13.386;2024-01-30T04:44:07;102224.38;;;8.33;100.00
5356;BME280;70449;52.486;13.386;2024-01-30T04:46:34;102224.81;;;8.82;99.63
5356;BME280;70449;52.486;13.386;2024-01-30T04:49:01;102223.28;;;9.20;93.65
5356;BME280;70449;52.486;13.386;2024-01-30T04:51:29;102214.59;;;8.60;96.65
5356;BME280;70449;52.486;13.386;2024-01-30T04:53:56;102230.06;;;9.00;96.70
5356;BME280;70449;52.486;13.386;2024-01-30T04:56:25;102218.84;;;8.85;95.56
5356;BME280;70449;52.486;13.386;2024-01-30T04:58:52;102221.94;;;9.05;93.63
5356;BME280;70449;52.486;13.386;2024-01-30T05:01:19;102227.22;;;8.78;96.09
5356;BME280;70449;52.486;13.386;2024-01-30T05:03:46;102222.84;;;8.66;98.21
5356;BME280;70449;52.486;13.386;2024-01-30T05:06:24;102221.00;;;8.83;99.66
5356;BME280;70449;52.486;13.386;2024-01-30T05:08:52;102226.28;;;8.32;100.00
5356;BME280;70449;52.486;13.386;2024-01-30T05:11:19;102223.22;;;8.29;100.00
5356;BME280;70449;52.486;13.386;2024-01-30T05:13:48;102220.31;;;8.76;100.00
5356;BME280;70449;52.486;13.386;2024-01-30T05:16:15;102222.38;;;8.40;100.00
5356;BME280;70449;52.486;13.386;2024-01-30T05:18:42;102226.38;;;7.97;100.00
5356;BME280;70449;52.486;13.386;2024-01-30T05:21:10;102227.09;;;7.81;100.00
5356;BME280;70449;52.486;13.386;2024-01-30T05:23:38;102225.16;;;8.16;100.00
5356;BME280;70449;52.486;13.386;2024-01-30T05:26:06;102232.06;;;8.07;100.00
5356;BME280;70449;52.486;13.386;2024-01-30T05:28:33;102225.34;;;8.27;100.00
5356;BME280;70449;52.486;13.386;2024-01-30T05:31:01;102218.72;;;8.23;100.00
5356;BME280;70449;52.486;13.386;2024-01-30T05:33:29;102221.81;;;8.14;100.00
5356;BME280;70449;52.486;13.386;2024-01-30T05:35:56;102224.00;;;7.89;100.00
5356;BME280;70449;52.486;13.386;2024-01-30T05:38:23;102221.56;;;8.28;100.00
5356;BME280;70449;52.486;13.386;2024-01-30T05:40:50;102216.59;;;8.13;100.00
5356;BME280;70449;52.486;13.386;2024-01-30T05:43:17;102214.31;;;8.22;100.00
5356;BME280;70449;52.486;13.386;2024-01-30T05:45:45;102218.31;;;7.79;100.00
5356;BME280;70449;52.486;13.386;2024-01-30T05:48:13;102215.44;;;7.97;100.00
5356;BME280;70449;52.486;13.386;2024-01-30T05:50:43;102212.78;;;8.26;100.00
5356;BME280;70449;52.486;13.386;2024-01-30T05:53:11;102215.91;;;7.94;100.00
5356;BME280;70449;52.486;13.386;2024-01-30T05:55:38;102215.94;;;7.70;100.00
5356;BME280;70449;52.486;13.386;2024-01-30T05:58:08;102216.44;;;7.67;100.00
5356;BME280;70449;52.486;13.386;2024-01-30T06:00:35;102209.31;;;7.66;100.00
5356;BME280;70449;52.486;13.386;2024-01-30T06:03:03;102208.72;;;7.64;100.00
5356;BME280;70449;52.486;13.386;2024-01-30T06:05:31;102210.16;;;8.31;100.00
5356;BME280;70449;52.486;13.386;2024-01-30T06:07:59;102207.50;;;8.36;100.00
5356;BME280;70449;52.486;13.386;2024-01-30T06:10:26;102215.34;;;8.44;100.00
5356;BME280;70449;52.486;13.386;2024-01-30T06:12:53;102212.38;;;8.46;100.00
5356;BME280;70449;52.486;13.386;2024-01-30T06:15:21;102214.00;;;8.06;100.00
5356;BME280;70449;52.486;13.386;2024-01-30T06:17:48;102214.13;;;8.00;100.00
5356;BME280;70449;52.486;13.386;2024-01-30T06:20:16;102210.16;;;8.31;100.00
5356;BME280;70449;52.486;13.386;2024-01-30T06:22:45;102212.78;;;8.83;100.00
5356;BME280;70449;52.486;13.386;2024-01-30T06:25:12;102212.91;;;8.59;100.00
5356;BME280;70449;52.486;13.386;2024-01-30T06:27:40;102210.47;;;8.75;100.00
5356;BME280;70449;52.486;13.386;2024-01-30T06:30:08;102206.06;;;8.45;100.00
5356;BME280;70449;52.486;13.386;2024-01-30T06:32:35;102207.56;;;8.12;100.00
5356;BME280;70449;52.486;13.386;2024-01-30T06:35:04;102212.72;;;8.49;100.00
5356;BME280;70449;52.486;13.386;2024-01-30T06:37:32;102205.19;;;8.85;100.00
5356;BME280;70449;52.486;13.386;2024-01-30T06:40:00;102200.72;;;8.96;100.00
5356;BME280;70449;52.486;13.386;2024-01-30T06:42:28;102196.31;;;8.49;100.00
5356;BME280;70449;52.486;13.386;2024-01-30T06:44:55;102205.34;;;8.38;100.00
5356;BME280;70449;52.486;13.386;2024-01-30T06:47:22;102205.34;;;7.86;100.00
5356;BME280;70449;52.486;13.386;2024-01-30T06:49:50;102200.81;;;8.03;100.00
5356;BME280;70449;52.486;13.386;2024-01-30T06:52:17;102203.50;;;8.27;100.00
5356;BME280;70449;52.486;13.386;2024-01-30T06:54:44;102199.53;;;8.92;100.00
5356;BME280;70449;52.486;13.386;2024-01-30T06:57:13;102196.88;;;8.80;100.00
5356;BME280;70449;52.486;13.386;2024-01-30T06:59:40;102211.53;;;8.45;100.00
5356;BME280;70449;52.486;13.386;2024-01-30T07:02:09;102209.38;;;8.76;100.00
5356;BME280;70449;52.486;13.386;2024-01-30T07:04:37;102199.22;;;8.88;98.47
5356;BME280;70449;52.486;13.386;2024-01-30T07:07:05;102208.25;;;9.05;99.78
5356;BME280;70449;52.486;13.386;2024-01-30T07:09:37;102200.97;;;8.66;100.00
5356;BME280;70449;52.486;13.386;2024-01-30T07:12:05;102206.59;;;8.18;100.00
5356;BME280;70449;52.486;13.386;2024-01-30T07:14:34;102209.66;;;8.34;100.00
5356;BME280;70449;52.486;13.386;2024-01-30T07:17:02;102209.88;;;8.44;100.00
5356;BME280;70449;52.486;13.386;2024-01-30T07:19:29;102208.63;;;8.63;100.00
5356;BME280;70449;52.486;13.386;2024-01-30T07:21:58;102210.59;;;8.51;100.00
5356;BME280;70449;52.486;13.386;2024-01-30T07:24:25;102209.97;;;8.78;100.00
5356;BME280;70449;52.486;13.386;2024-01-30T07:26:53;102204.03;;;9.15;98.79
5356;BME280;70449;52.486;13.386;2024-01-30T07:29:20;102202.91;;;8.65;100.00
5356;BME280;70449;52.486;13.386;2024-01-30T07:31:50;102204.41;;;8.44;99.85
5356;BME280;70449;52.486;13.386;2024-01-30T07:34:17;102195.94;;;8.74;100.00
5356;BME280;70449;52.486;13.386;2024-01-30T07:36:44;102201.41;;;9.20;98.93
5356;BME280;70449;52.486;13.386;2024-01-30T07:39:12;102204.03;;;9.15;98.23
5356;BME280;70449;52.486;13.386;2024-01-30T07:41:40;102191.41;;;9.47;93.64
5356;BME280;70449;52.486;13.386;2024-01-30T07:44:07;102192.88;;;9.72;91.18
5356;BME280;70449;52.486;13.386;2024-01-30T07:46:34;102192.59;;;9.18;96.33
5356;BME280;70449;52.486;13.386;2024-01-30T07:49:03;102195.38;;;8.89;96.88
5356;BME280;70449;52.486;13.386;2024-01-30T07:51:30;102191.91;;;9.44;90.94
5356;BME280;70449;52.486;13.386;2024-01-30T07:53:58;102195.09;;;9.02;96.53
5356;BME280;70449;52.486;13.386;2024-01-30T07:56:26;102191.47;;;8.68;100.00
5356;BME280;70449;52.486;13.386;2024-01-30T07:58:53;102193.84;;;8.93;100.00
5356;BME280;70449;52.486;13.386;2024-01-30T08:01:20;102188.44;;;8.81;100.00
5356;BME280;70449;52.486;13.386;2024-01-30T08:03:47;102192.25;;;8.97;100.00
5356;BME280;70449;52.486;13.386;2024-01-30T08:06:17;102194.28;;;9.19;100.00
5356;BME280;70449;52.486;13.386;2024-01-30T08:08:44;102192.88;;;8.71;100.00
5356;BME280;70449;52.486;13.386;2024-01-30T08:11:12;102196.38;;;8.83;100.00
5356;BME280;70449;52.486;13.386;2024-01-30T08:13:39;102196.75;;;9.37;98.88
5356;BME280;70449;52.486;13.386;2024-01-30T08:16:07;102197.84;;;8.74;100.00
5356;BME280;70449;52.486;13.386;2024-01-30T08:18:34;102188.94;;;8.50;100.00
5356;BME280;70449;52.486;13.386;2024-01-30T08:21:02;102193.41;;;9.52;96.32
5356;BME280;70449;52.486;13.386;2024-01-30T08:23:31;102187.28;;;8.94;99.27
5356;BME280;70449;52.486;13.386;2024-01-30T08:25:58;102188.22;;;8.54;100.00
5356;BME280;70449;52.486;13.386;2024-01-30T08:28:26;102184.47;;;9.23;98.08
5356;BME280;70449;52.486;13.386;2024-01-30T08:30:53;102187.97;;;9.01;100.00
5356;BME280;70449;52.486;13.386;2024-01-30T08:33:20;102181.25;;;9.65;97.38
5356;BME280;70449;52.486;13.386;2024-01-30T08:35:47;102184.50;;;9.72;91.77
5356;BME280;70449;52.486;13.386;2024-01-30T08:38:15;102184.50;;;10.01;91.77
5356;BME280;70449;52.486;13.386;2024-01-30T08:40:44;102183.75;;;10.27;88.09
5356;BME280;70449;52.486;13.386;2024-01-30T08:43:11;102177.91;;;10.23;88.91
5356;BME280;70449;52.486;13.386;2024-01-30T08:45:38;102182.22;;;10.36;86.26
5356;BME280;70449;52.486;13.386;2024-01-30T08:48:06;102175.53;;;10.27;86.57
5356;BME280;70449;52.486;13.386;2024-01-30T08:50:34;102179.78;;;10.67;84.09
5356;BME280;70449;52.486;13.386;2024-01-30T08:53:01;102173.16;;;10.63;82.00
5356;BME280;70449;52.486;13.386;2024-01-30T08:55:28;102170.22;;;10.42;84.73
5356;BME280;70449;52.486;13.386;2024-01-30T08:57:57;102175.78;;;9.65;85.40
5356;BME280;70449;52.486;13.386;2024-01-30T09:00:24;102171.28;;;9.75;90.87
5356;BME280;70449;52.486;13.386;2024-01-30T09:02:52;102179.66;;;10.08;89.56
5356;BME280;70449;52.486;13.386;2024-01-30T09:05:19;102170.47;;;10.19;87.75
5356;BME280;70449;52.486;13.386;2024-01-30T09:07:46;102170.47;;;9.75;91.65
5356;BME280;70449;52.486;13.386;2024-01-30T09:10:14;102170.66;;;10.56;87.02
5356;BME280;70449;52.486;13.386;2024-01-30T09:12:41;102161.03;;;9.66;88.98
5356;BME280;70449;52.486;13.386;2024-01-30T09:15:10;102166.53;;;10.10;89.08
5356;BME280;70449;52.486;13.386;2024-01-30T09:17:38;102172.78;;;10.27;86.34
5356;BME280;70449;52.486;13.386;2024-01-30T09:20:07;102167.34;;;10.32;86.29
5356;BME280;70449;52.486;13.386;2024-01-30T09:22:35;102169.25;;;10.54;86.81
5356;BME280;70449;52.486;13.386;2024-01-30T09:25:02;102176.47;;;10.16;85.05
5356;BME280;70449;52.486;13.386;2024-01-30T09:27:29;102173.31;;;9.85;86.83
5356;BME280;70449;52.486;13.386;2024-01-30T09:29:57;102174.06;;;9.97;87.39
5356;BME280;70449;52.486;13.386;2024-01-30T09:32:26;102174.09;;;10.03;85.03
5356;BME280;70449;52.486;13.386;2024-01-30T09:34:53;102180.41;;;10.25;82.58
5356;BME280;70449;52.486;13.386;2024-01-30T09:37:20;102172.81;;;9.88;82.38
5356;BME280;70449;52.486;13.386;2024-01-30T09:39:47;102175.47;;;9.44;86.73
5356;BME280;70449;52.486;13.386;2024-01-30T09:42:26;102171.47;;;10.30;81.87
5356;BME280;70449;52.486;13.386;2024-01-30T09:44:55;102168.00;;;10.99;76.99
5356;BME280;70449;52.486;13.386;2024-01-30T09:47:24;102173.16;;;10.63;79.37
5356;BME280;70449;52.486;13.386;2024-01-30T09:49:52;102164.59;;;10.86;76.00
5356;BME280;70449;52.486;13.386;2024-01-30T09:52:20;102174.91;;;10.25;77.32
5356;BME280;70449;52.486;13.386;2024-01-30T09:54:50;102169.31;;;10.15;78.39
5356;BME280;70449;52.486;13.386;2024-01-30T09:57:18;102174.56;;;10.65;76.60
5356;BME280;70449;52.486;13.386;2024-01-30T09:59:46;102163.09;;;10.41;76.54
5356;BME280;70449;52.486;13.386;2024-01-30T10:02:14;102169.31;;;10.15;76.75
5356;BME280;70449;52.486;13.386;2024-01-30T10:04:43;102158.94;;;10.66;75.22
5356;BME280;70449;52.486;13.386;2024-01-30T10:07:10;102165.81;;;10.41;74.68
5356;BME280;70449;52.486;13.386;2024-01-30T10:09:38;102157.28;;;10.65;73.83
5356;BME280;70449;52.486;13.386;2024-01-30T10:12:07;102161.41;;;10.95;72.72
5356;BME280;70449;52.486;13.386;2024-01-30T10:14:37;102169.91;;;10.66;72.31
5356;BME280;70449;52.486;13.386;2024-01-30T10:17:06;102158.72;;;11.05;71.44
5356;BME280;70449;52.486;13.386;2024-01-30T10:19:34;102150.88;;;11.19;70.86
5356;BME280;70449;52.486;13.386;2024-01-30T10:22:03;102157.00;;;10.66;71.83
5356;BME280;70449;52.486;13.386;2024-01-30T10:24:30;102150.41;;;10.95;70.12
5356;BME280;70449;52.486;13.386;2024-01-30T10:26:57;102139.59;;;10.51;71.59
5356;BME280;70449;52.486;13.386;2024-01-30T10:29:27;102145.09;;;11.20;69.80
5356;BME280;70449;52.486;13.386;2024-01-30T10:31:58;102144.75;;;10.74;70.92
5356;BME280;70449;52.486;13.386;2024-01-30T10:34:27;102153.03;;;10.79;70.99
5356;BME280;70449;52.486;13.386;2024-01-30T10:37:06;102144.09;;;11.31;68.29
5356;BME280;70449;52.486;13.386;2024-01-30T10:39:39;102132.44;;;11.14;68.27
5356;BME280;70449;52.486;13.386;2024-01-30T10:42:10;102140.59;;;11.46;68.88
5356;BME280;70449;52.486;13.386;2024-01-30T10:44:46;102139.38;;;11.64;67.62
5356;BME280;70449;52.486;13.386;2024-01-30T10:47:24;102132.03;;;11.38;67.09
5356;BME280;70449;52.486;13.386;2024-01-30T10:49:53;102130.41;;;11.37;67.74
5356;BME280;70449;52.486;13.386;2024-01-30T10:52:24;102139.88;;;11.56;66.43
5356;BME280;70449;52.486;13.386;2024-01-30T10:54:54;102131.06;;;11.54;66.23
5356;BME280;70449;52.486;13.386;2024-01-30T10:57:23;102135.94;;;11.42;67.30
5356;BME280;70449;52.486;13.386;2024-01-30T10:59:52;102137.00;;;11.41;66.29
5356;BME280;70449;52.486;13.386;2024-01-30T11:02:20;102138.53;;;12.27;64.56
5356;BME280;70449;52.486;13.386;2024-01-30T11:04:54;102139.47;;;11.85;65.17
5356;BME280;70449;52.486;13.386;2024-01-30T11:07:26;102128.31;;;12.12;63.56
5356;BME280;70449;52.486;13.386;2024-01-30T11:10:00;102138.19;;;11.55;65.32
5356;BME280;70449;52.486;13.386;2024-01-30T11:12:29;102138.19;;;11.55;65.57
5356;BME280;70449;52.486;13.386;2024-01-30T11:15:03;102138.41;;;11.96;64.41
5356;BME280;70449;52.486;13.386;2024-01-30T11:17:41;102130.19;;;12.01;63.96
5356;BME280;70449;52.486;13.386;2024-01-30T11:20:11;102129.41;;;11.53;64.31
5356;BME280;70449;52.486;13.386;2024-01-30T11:22:44;102136.22;;;11.88;64.81
5356;BME280;70449;52.486;13.386;2024-01-30T11:25:13;102121.38;;;11.99;64.65
5356;BME280;70449;52.486;13.386;2024-01-30T11:27:42;102121.72;;;12.13;64.67
5356;BME280;70449;52.486;13.386;2024-01-30T11:30:11;102124.84;;;12.52;63.47
5356;BME280;70449;52.486;13.386;2024-01-30T11:32:58;102124.25;;;12.35;62.98
5356;BME280;70449;52.486;13.386;2024-01-30T11:35:26;102121.81;;;13.00;61.77
5356;BME280;70449;52.486;13.386;2024-01-30T11:37:55;102119.34;;;12.78;62.59
5356;BME280;70449;52.486;13.386;2024-01-30T11:40:25;102122.03;;;12.27;62.44
5356;BME280;70449;52.486;13.386;2024-01-30T11:42:54;102117.34;;;12.27;63.05
5356;BME280;70449;52.486;13.386;2024-01-30T11:45:22;102126.41;;;12.22;64.09
5356;BME280;70449;52.486;13.386;2024-01-30T11:47:51;102120.69;;;12.60;62.81
5356;BME280;70449;52.486;13.386;2024-01-30T11:50:19;102111.91;;;12.99;62.31
5356;BME280;70449;52.486;13.386;2024-01-30T11:52:48;102118.78;;;12.50;62.74
5356;BME280;70449;52.486;13.386;2024-01-30T11:55:17;102117.16;;;12.64;63.69
5356;BME280;70449;52.486;13.386;2024-01-30T11:57:44;102113.81;;;13.24;61.07
5356;BME280;70449;52.486;13.386;2024-01-30T12:00:15;102107.97;;;13.51;60.67
5356;BME280;70449;52.486;13.386;2024-01-30T12:02:44;102106.91;;;13.16;60.69
5356;BME280;70449;52.486;13.386;2024-01-30T12:05:15;102095.63;;;13.33;60.73
5356;BME280;70449;52.486;13.386;2024-01-30T12:07:44;102097.13;;;13.80;59.46
5356;BME280;70449;52.486;13.386;2024-01-30T12:10:13;102097.81;;;13.51;59.48
5356;BME280;70449;52.486;13.386;2024-01-30T12:12:45;102102.59;;;13.90;59.88
5356;BME280;70449;52.486;13.386;2024-01-30T12:15:13;102099.94;;;13.70;59.30
5356;BME280;70449;52.486;13.386;2024-01-30T12:17:41;102091.25;;;12.81;62.40
5356;BME280;70449;52.486;13.386;2024-01-30T12:20:10;102084.53;;;13.64;60.75
5356;BME280;70449;52.486;13.386;2024-01-30T12:22:40;102088.00;;;13.41;59.30
5356;BME280;70449;52.486;13.386;2024-01-30T12:25:08;102088.00;;;13.90;59.30
5356;BME280;70449;52.486;13.386;2024-01-30T12:27:36;102081.16;;;13.77;59.40
5356;BME280;70449;52.486;13.386;2024-01-30T12:30:08;102076.84;;;13.45;60.36
5356;BME280;70449;52.486;13.386;2024-01-30T12:32:36;102069.22;;;13.27;61.45
5356;BME280;70449;52.486;13.386;2024-01-30T12:35:06;102062.56;;;13.43;61.40
5356;BME280;70449;52.486;13.386;2024-01-30T12:37:34;102061.44;;;14.43;59.45
5356;BME280;70449;52.486;13.386;2024-01-30T12:40:01;102062.28;;;13.99;60.04
5356;BME280;70449;52.486;13.386;2024-01-30T12:42:29;102059.09;;;13.77;60.47
5356;BME280;70449;52.486;13.386;2024-01-30T12:44:57;102057.78;;;13.64;61.62
5356;BME280;70449;52.486;13.386;2024-01-30T12:47:27;102051.44;;;14.58;59.91
5356;BME280;70449;52.486;13.386;2024-01-30T12:49:55;102050.31;;;14.59;60.42
5356;BME280;70449;52.486;13.386;2024-01-30T12:52:22;102047.00;;;14.17;59.81
5356;BME280;70449;52.486;13.386;2024-01-30T12:54:51;102035.50;;;13.55;62.16
5356;BME280;70449;52.486;13.386;2024-01-30T12:57:18;102030.63;;;14.36;60.44
5356;BME280;70449;52.486;13.386;2024-01-30T12:59:46;102028.47;;;14.28;59.61